Time;durP1;ratioP1;P1;durP2;ratioP2;P2;SDS_P1;SDS_P2;PMS_P1;PMS_P2;Temp;Humidity;BMP_temperature;BMP_pressure;BME280_temperature;BME280_humidity;BME280_pressure;Samples;Min_cycle;Max_cycle;Signal;HPM_P1;HPM_P2
2023/07/25 00:02:27;;;;;;;3.22;1.30;;;17.90;99.90;;;;;;5071956;28;20205;-59
2023/07/25 00:04:55;;;;;;;2.15;1.25;;;17.90;99.90;;;;;;5071635;28;20675;-59
2023/07/25 00:07:23;;;;;;;4.60;1.30;;;17.90;99.90;;;;;;5081699;28;20321;-59
2023/07/25 00:09:52;;;;;;;2.80;1.33;;;18.00;99.90;;;;;;5081387;28;20749;-59
2023/07/25 00:12:21;;;;;;;1.50;1.38;;;18.00;99.90;;;;;;5072001;28;20226;-59
2023/07/25 00:14:49;;;;;;;3.15;1.25;;;18.00;99.90;;;;;;5071415;28;20264;-59
2023/07/25 00:17:17;;;;;;;4.25;1.60;;;18.00;99.90;;;;;;5080802;28;20221;-59
2023/07/25 00:19:45;;;;;;;3.10;1.38;;;18.00;99.90;;;;;;5082107;28;20205;-59
2023/07/25 00:22:12;;;;;;;5.30;1.70;;;18.00;99.90;;;;;;5071748;28;20247;-59
2023/07/25 00:24:40;;;;;;;1.80;1.10;;;18.00;99.90;;;;;;5071308;28;20740;-59
2023/07/25 00:27:08;;;;;;;1.33;1.17;;;18.00;99.90;;;;;;5071857;28;20223;-59
2023/07/25 00:29:38;;;;;;;1.23;1.13;;;18.00;99.90;;;;;;5072167;28;20262;-59
2023/07/25 00:32:06;;;;;;;2.47;1.60;;;18.00;99.90;;;;;;5071881;28;20201;-59
2023/07/25 00:34:34;;;;;;;5.10;1.45;;;18.10;99.90;;;;;;5071412;28;20219;-59
2023/07/25 00:37:02;;;;;;;6.13;1.45;;;18.10;99.90;;;;;;5071681;28;20270;-59
2023/07/25 00:39:30;;;;;;;2.10;1.20;;;18.00;99.90;;;;;;5071641;28;20201;-59
2023/07/25 00:41:58;;;;;;;3.42;1.52;;;18.00;99.90;;;;;;5071713;28;20232;-59
2023/07/25 00:44:26;;;;;;;6.00;1.30;;;18.00;99.90;;;;;;5071610;28;20640;-59
2023/07/25 00:46:55;;;;;;;4.93;1.20;;;18.10;99.90;;;;;;5071095;28;20225;-59
2023/07/25 00:49:23;;;;;;;3.30;1.20;;;18.10;99.90;;;;;;5071576;28;20281;-59
2023/07/25 00:55:39;;;;;;;2.53;0.90;;;18.00;99.90;;;;;;5069844;28;20211;-59
2023/07/25 00:58:07;;;;;;;1.20;1.20;;;18.00;99.90;;;;;;5071322;28;20840;-59
2023/07/25 01:00:37;;;;;;;2.17;1.15;;;18.00;99.90;;;;;;5071519;28;20208;-59
2023/07/25 01:03:06;;;;;;;4.05;1.15;;;18.00;99.90;;;;;;5071290;28;20196;-59
2023/07/25 01:05:35;;;;;;;1.27;1.17;;;18.00;99.90;;;;;;5054968;28;20219;-59
2023/07/25 01:08:03;;;;;;;1.70;1.40;;;18.00;99.90;;;;;;5071211;28;20205;-59
2023/07/25 01:10:32;;;;;;;1.65;1.23;;;18.00;99.90;;;;;;5071435;28;20228;-59
2023/07/25 01:13:00;;;;;;;6.15;1.50;;;18.10;99.90;;;;;;5071339;28;20224;-59
2023/07/25 01:15:28;;;;;;;1.15;1.15;;;18.00;99.90;;;;;;5070706;28;20213;-59
2023/07/25 01:17:56;;;;;;;1.55;0.90;;;18.00;99.90;;;;;;5071385;28;20224;-59
2023/07/25 01:20:25;;;;;;;5.07;1.20;;;18.00;99.90;;;;;;5070861;28;20207;-59
2023/07/25 01:22:53;;;;;;;4.32;1.27;;;18.00;99.90;;;;;;5071436;28;20284;-59
2023/07/25 01:25:23;;;;;;;1.35;1.35;;;18.00;99.90;;;;;;5070110;28;20238;-59
2023/07/25 01:27:50;;;;;;;1.65;1.15;;;18.10;99.90;;;;;;5074519;28;20217;-59
2023/07/25 01:30:18;;;;;;;4.13;1.05;;;18.10;99.90;;;;;;5074990;28;20240;-59
2023/07/25 01:32:46;;;;;;;2.67;1.30;;;18.10;99.90;;;;;;5074816;28;20200;-59
2023/07/25 01:35:14;;;;;;;3.42;1.30;;;18.10;99.90;;;;;;5074351;28;20766;-59
2023/07/25 01:37:42;;;;;;;3.10;1.30;;;18.10;99.90;;;;;;5074836;28;20286;-59
2023/07/25 01:40:12;;;;;;;3.53;1.20;;;18.10;99.90;;;;;;5074654;28;20247;-59
2023/07/25 01:42:41;;;;;;;2.80;1.10;;;18.10;99.90;;;;;;5074831;28;20644;-59
2023/07/25 01:45:10;;;;;;;3.75;1.50;;;18.10;99.90;;;;;;5074133;28;20204;-59
2023/07/25 01:47:38;;;;;;;1.63;1.40;;;18.10;99.90;;;;;;5074406;28;20728;-59
2023/07/25 01:50:06;;;;;;;2.13;1.27;;;18.10;99.90;;;;;;5074428;28;20716;-59
2023/07/25 01:52:34;;;;;;;4.43;1.15;;;18.10;99.90;;;;;;5074822;28;20284;-59
2023/07/25 01:55:02;;;;;;;1.45;1.38;;;18.10;99.90;;;;;;5074125;28;20312;-59
2023/07/25 01:57:30;;;;;;;4.07;1.50;;;18.10;99.90;;;;;;5074349;28;20605;-59
2023/07/25 02:00:00;;;;;;;2.35;1.20;;;18.10;99.90;;;;;;5074062;28;20205;-59
2023/07/25 02:02:27;;;;;;;1.48;1.48;;;18.10;99.90;;;;;;5074723;28;20205;-59
2023/07/25 02:04:56;;;;;;;1.58;1.48;;;18.10;99.90;;;;;;5074020;28;20673;-59
2023/07/25 02:07:23;;;;;;;2.10;1.40;;;18.10;99.90;;;;;;5074288;28;20355;-59
2023/07/25 02:09:53;;;;;;;2.05;1.60;;;18.20;99.90;;;;;;5074175;28;20756;-59
2023/07/25 02:12:21;;;;;;;3.60;1.35;;;18.20;99.90;;;;;;5074048;28;20287;-59
2023/07/25 02:14:49;;;;;;;2.35;1.17;;;18.10;99.90;;;;;;5073874;28;20217;-59
2023/07/25 02:17:19;;;;;;;5.25;1.38;;;18.10;99.90;;;;;;5074194;28;20221;-59
2023/07/25 02:19:47;;;;;;;4.15;1.52;;;18.00;99.90;;;;;;5074132;28;20197;-59
2023/07/25 02:22:15;;;;;;;3.03;1.90;;;17.90;99.90;;;;;;5074170;28;20201;-59
2023/07/25 02:24:43;;;;;;;3.92;1.67;;;17.80;99.90;;;;;;5073450;28;20720;-59
2023/07/25 02:27:11;;;;;;;7.13;1.55;;;17.80;99.90;;;;;;5073745;28;20658;-58
2023/07/25 02:29:39;;;;;;;5.40;1.42;;;17.70;99.90;;;;;;5073938;28;20280;-59
2023/07/25 02:32:08;;;;;;;2.60;1.70;;;17.70;99.90;;;;;;5074136;28;20559;-59
2023/07/25 02:34:37;;;;;;;8.27;1.88;;;17.70;99.90;;;;;;5073326;28;20256;-59
2023/07/25 02:37:05;;;;;;;3.45;1.92;;;17.70;99.90;;;;;;5078477;22;20261;-60
2023/07/25 02:39:33;;;;;;;4.03;1.80;;;17.70;99.90;;;;;;5043456;28;20205;-56
2023/07/25 02:42:01;;;;;;;2.05;1.92;;;17.70;99.90;;;;;;5053843;28;20202;-57
2023/07/25 02:44:29;;;;;;;2.75;1.95;;;17.70;99.90;;;;;;5053480;28;20219;-59
2023/07/25 02:46:56;;;;;;;1.75;1.50;;;17.70;99.90;;;;;;5068487;28;20833;-59
2023/07/25 02:49:24;;;;;;;2.17;2.08;;;17.70;99.90;;;;;;5054195;28;20201;-56
2023/07/25 02:51:54;;;;;;;2.15;2.00;;;17.70;99.90;;;;;;5059812;28;20207;-57
2023/07/25 02:54:21;;;;;;;2.60;1.98;;;17.60;99.90;;;;;;5065243;28;20232;-55
2023/07/25 02:56:49;;;;;;;2.95;2.00;;;17.60;99.90;;;;;;5066823;28;20264;-57
2023/07/25 02:59:19;;;;;;;2.03;1.90;;;17.60;99.90;;;;;;5070575;28;20660;-58
2023/07/25 03:01:47;;;;;;;3.95;1.70;;;17.60;99.90;;;;;;5062539;28;20295;-55
2023/07/25 03:04:14;;;;;;;2.30;2.20;;;17.60;99.90;;;;;;5053441;28;20232;-56
2023/07/25 03:06:42;;;;;;;2.55;2.35;;;17.50;99.90;;;;;;5063891;28;20231;-55
2023/07/25 03:09:12;;;;;;;2.58;2.33;;;17.50;99.90;;;;;;5070195;28;20637;-57
2023/07/25 03:11:39;;;;;;;2.10;2.00;;;17.50;99.90;;;;;;5068649;28;20229;-59
2023/07/25 03:14:07;;;;;;;3.30;2.58;;;17.50;99.90;;;;;;5061177;28;20287;-56
2023/07/25 03:16:35;;;;;;;2.75;2.50;;;17.50;99.90;;;;;;5060303;28;20304;-55
2023/07/25 03:19:03;;;;;;;5.65;2.30;;;17.50;99.90;;;;;;5068923;28;20232;-56
2023/07/25 03:21:31;;;;;;;4.85;2.60;;;17.50;99.90;;;;;;5056533;28;20229;-55
2023/07/25 03:23:59;;;;;;;6.72;2.90;;;17.50;99.90;;;;;;5065456;28;20201;-56
2023/07/25 03:26:29;;;;;;;4.72;3.03;;;17.50;99.90;;;;;;5063791;28;20250;-56
2023/07/25 03:28:57;;;;;;;4.70;2.42;;;17.50;99.90;;;;;;5057388;28;20243;-55
2023/07/25 03:31:25;;;;;;;2.67;2.50;;;17.40;99.90;;;;;;5069202;28;20669;-56
2023/07/25 03:33:53;;;;;;;2.67;2.58;;;17.40;99.90;;;;;;5058946;28;20224;-57
2023/07/25 03:36:21;;;;;;;4.25;2.72;;;17.40;99.90;;;;;;5065883;28;20718;-57
2023/07/25 03:38:49;;;;;;;5.55;3.03;;;17.40;99.90;;;;;;5062409;28;20228;-57
2023/07/25 03:41:16;;;;;;;4.78;3.22;;;17.30;99.90;;;;;;5060543;28;20213;-58
2023/07/25 03:43:46;;;;;;;5.38;3.45;;;17.30;99.90;;;;;;5064163;28;20242;-56
2023/07/25 03:46:13;;;;;;;4.05;3.47;;;17.30;99.90;;;;;;5072085;28;20201;-56
2023/07/25 03:48:41;;;;;;;3.60;3.13;;;17.30;99.90;;;;;;5058701;28;20601;-55
2023/07/25 03:51:09;;;;;;;4.00;3.70;;;17.30;99.90;;;;;;5052696;28;20631;-55
2023/07/25 03:53:37;;;;;;;4.15;3.70;;;17.30;99.90;;;;;;5055785;28;20235;-57
2023/07/25 03:56:07;;;;;;;6.30;3.67;;;17.30;99.90;;;;;;5071749;28;20213;-59
2023/07/25 03:58:35;;;;;;;3.63;3.42;;;17.30;99.90;;;;;;5059838;28;20229;-55
2023/07/25 04:01:04;;;;;;;4.85;4.13;;;17.30;99.90;;;;;;5068388;28;20196;-55
2023/07/25 04:03:32;;;;;;;4.38;3.90;;;17.30;99.90;;;;;;5068656;28;20285;-56
2023/07/25 04:06:00;;;;;;;9.13;4.10;;;17.20;99.90;;;;;;5056464;28;20981;-57
2023/07/25 04:08:28;;;;;;;7.28;4.82;;;17.20;99.90;;;;;;5068392;28;20225;-57
2023/07/25 04:10:56;;;;;;;5.32;4.05;;;17.20;99.90;;;;;;5052004;28;20225;-56
2023/07/25 04:13:24;;;;;;;10.05;4.18;;;17.20;99.90;;;;;;5068466;28;20329;-56
2023/07/25 04:15:51;;;;;;;6.50;4.20;;;17.10;99.90;;;;;;5057873;28;20769;-58
2023/07/25 04:18:21;;;;;;;8.38;4.53;;;17.10;99.90;;;;;;5061659;28;20795;-59
2023/07/25 04:20:48;;;;;;;4.78;4.28;;;17.10;99.90;;;;;;5065441;28;20258;-61
2023/07/25 04:23:16;;;;;;;4.57;4.22;;;17.10;99.90;;;;;;5061892;28;20233;-55
2023/07/25 04:25:44;;;;;;;5.45;4.88;;;17.10;99.90;;;;;;5062690;28;20204;-57
2023/07/25 04:28:12;;;;;;;4.82;4.53;;;17.10;99.90;;;;;;5057645;28;20316;-58
2023/07/25 04:30:40;;;;;;;8.32;4.65;;;17.10;99.90;;;;;;5067661;28;20281;-59
2023/07/25 04:33:08;;;;;;;8.63;4.55;;;17.10;99.90;;;;;;5052034;28;20292;-60
2023/07/25 04:35:37;;;;;;;6.50;4.80;;;17.10;99.90;;;;;;5067092;28;20249;-56
2023/07/25 04:38:05;;;;;;;4.93;4.55;;;17.10;99.90;;;;;;5055926;28;20268;-56
2023/07/25 04:40:33;;;;;;;4.57;4.18;;;17.10;99.90;;;;;;5067998;28;20255;-56
2023/07/25 04:43:01;;;;;;;5.43;3.95;;;17.10;99.90;;;;;;5051660;28;20205;-56
2023/07/25 04:45:29;;;;;;;3.42;3.13;;;17.10;99.90;;;;;;5067817;28;20334;-57
2023/07/25 04:47:57;;;;;;;4.32;3.95;;;17.00;99.90;;;;;;5054851;28;20295;-58
2023/07/25 04:50:25;;;;;;;4.03;3.72;;;17.00;99.90;;;;;;5062169;28;20596;-58
2023/07/25 04:52:54;;;;;;;4.47;4.07;;;17.00;99.90;;;;;;5056766;28;20233;-59
2023/07/25 04:55:22;;;;;;;7.75;4.30;;;17.00;99.90;;;;;;5065418;28;20208;-55
2023/07/25 04:57:50;;;;;;;4.65;4.35;;;17.10;99.90;;;;;;5057840;28;20267;-55
2023/07/25 05:00:18;;;;;;;4.40;3.75;;;17.00;99.90;;;;;;5061216;28;20642;-55
2023/07/25 05:02:46;;;;;;;4.55;4.13;;;17.00;99.90;;;;;;5060931;28;20726;-55
2023/07/25 05:05:14;;;;;;;3.83;3.42;;;17.00;99.90;;;;;;5071462;28;20236;-57
2023/07/25 05:07:42;;;;;;;4.93;3.70;;;17.00;99.90;;;;;;5060499;28;20300;-55
2023/07/25 05:10:11;;;;;;;4.63;4.25;;;17.00;99.90;;;;;;5066590;28;20239;-56
2023/07/25 05:12:39;;;;;;;6.28;5.05;;;17.00;99.90;;;;;;5068437;28;20279;-60
2023/07/25 05:15:08;;;;;;;4.72;4.30;;;16.90;99.90;;;;;;5058425;28;20756;-55
2023/07/25 05:17:36;;;;;;;4.88;3.92;;;16.90;99.90;;;;;;5071021;28;20249;-57
2023/07/25 05:20:04;;;;;;;4.78;4.32;;;16.90;99.90;;;;;;5062896;28;20201;-61
2023/07/25 05:22:32;;;;;;;6.00;4.80;;;16.90;99.90;;;;;;5063434;28;20238;-56
2023/07/25 05:25:00;;;;;;;5.80;4.95;;;16.80;99.90;;;;;;5070167;28;20668;-57
2023/07/25 05:27:29;;;;;;;4.88;4.47;;;16.90;99.90;;;;;;5058361;28;20252;-58
2023/07/25 05:29:57;;;;;;;7.72;4.60;;;16.90;99.90;;;;;;5068004;28;20281;-54
2023/07/25 05:32:25;;;;;;;5.22;4.75;;;16.90;99.90;;;;;;5054910;28;20300;-54
2023/07/25 05:34:53;;;;;;;6.68;4.53;;;16.90;99.90;;;;;;5069461;28;20201;-55
2023/07/25 05:37:22;;;;;;;8.25;4.38;;;17.00;99.90;;;;;;5058166;28;20226;-55
2023/07/25 05:39:51;;;;;;;6.07;5.32;;;17.00;99.90;;;;;;5068459;28;20616;-56
2023/07/25 05:42:19;;;;;;;7.80;6.05;;;17.10;99.90;;;;;;5064870;28;20209;-55
2023/07/25 05:44:48;;;;;;;7.65;6.95;;;17.20;99.90;;;;;;5060450;28;20292;-55
2023/07/25 05:47:16;;;;;;;9.65;6.47;;;17.20;99.90;;;;;;5071344;28;20228;-55
2023/07/25 05:49:43;;;;;;;10.45;7.47;;;17.20;99.90;;;;;;5054225;28;20248;-55
2023/07/25 05:52:12;;;;;;;8.18;7.05;;;17.30;99.90;;;;;;5063397;28;20691;-55
2023/07/25 05:54:40;;;;;;;10.48;7.68;;;17.30;99.90;;;;;;5061378;28;20284;-55
2023/07/25 05:57:08;;;;;;;9.55;8.63;;;17.40;99.90;;;;;;5069275;28;20235;-53
2023/07/25 05:59:36;;;;;;;9.50;8.52;;;17.50;99.90;;;;;;5057737;28;20603;-54
2023/07/25 06:02:06;;;;;;;10.85;9.30;;;17.50;99.90;;;;;;5066401;28;20712;-53
2023/07/25 06:04:34;;;;;;;10.52;9.35;;;17.50;99.90;;;;;;5065187;28;20209;-55
2023/07/25 06:07:02;;;;;;;11.05;9.40;;;17.50;99.90;;;;;;5057307;28;20218;-54
2023/07/25 06:09:30;;;;;;;12.10;10.73;;;17.60;99.90;;;;;;5070637;28;20197;-56
2023/07/25 06:11:58;;;;;;;13.95;10.10;;;17.70;99.90;;;;;;5060702;28;20225;-55
2023/07/25 06:14:25;;;;;;;11.32;10.25;;;17.70;99.90;;;;;;5063086;28;20284;-55
2023/07/25 06:16:53;;;;;;;11.52;10.32;;;17.60;99.90;;;;;;5068142;28;20261;-56
2023/07/25 06:19:23;;;;;;;12.93;10.70;;;17.60;99.90;;;;;;5057092;28;20201;-56
2023/07/25 06:21:51;;;;;;;10.15;9.25;;;17.50;99.90;;;;;;5065900;28;20197;-55
2023/07/25 06:24:18;;;;;;;10.48;9.48;;;17.50;99.90;;;;;;5059473;28;20882;-55
2023/07/25 06:26:46;;;;;;;12.77;9.93;;;17.50;99.90;;;;;;5067337;28;20201;-53
2023/07/25 06:29:14;;;;;;;10.45;9.27;;;17.40;99.90;;;;;;5057311;28;20197;-55
2023/07/25 06:31:42;;;;;;;11.65;10.07;;;17.40;99.90;;;;;;5069175;28;20285;-58
2023/07/25 06:34:10;;;;;;;13.50;10.50;;;17.30;99.90;;;;;;5062434;28;20220;-57
2023/07/25 06:36:39;;;;;;;13.15;9.85;;;17.40;99.90;;;;;;5060817;28;20276;-56
2023/07/25 06:39:07;;;;;;;11.10;10.00;;;17.50;99.90;;;;;;5069755;28;20251;-57
2023/07/25 06:41:35;;;;;;;12.25;11.05;;;17.40;99.90;;;;;;5057399;28;20193;-56
2023/07/25 06:44:04;;;;;;;11.65;9.32;;;17.40;99.90;;;;;;5064654;28;20233;-57
2023/07/25 06:46:31;;;;;;;11.63;9.90;;;17.30;99.90;;;;;;5064190;28;20204;-57
2023/07/25 06:48:59;;;;;;;10.63;9.50;;;17.30;99.90;;;;;;5057594;28;20289;-55
2023/07/25 06:51:27;;;;;;;9.80;8.82;;;17.30;99.90;;;;;;5054416;28;20288;-56
2023/07/25 06:53:56;;;;;;;13.55;10.05;;;17.30;99.90;;;;;;5065386;28;20205;-56
2023/07/25 06:56:24;;;;;;;11.35;9.52;;;17.30;99.90;;;;;;5063227;28;20680;-58
2023/07/25 06:58:52;;;;;;;11.30;9.75;;;17.30;99.90;;;;;;5058339;28;20233;-55
2023/07/25 07:01:20;;;;;;;12.15;9.93;;;17.40;99.90;;;;;;5069435;28;20270;-55
2023/07/25 07:03:48;;;;;;;10.20;9.15;;;17.40;99.90;;;;;;5058600;28;20196;-57
2023/07/25 07:06:16;;;;;;;10.52;9.20;;;17.40;99.90;;;;;;5063018;28;20256;-55
2023/07/25 07:08:44;;;;;;;9.32;8.50;;;17.50;99.90;;;;;;5066788;28;20263;-55
2023/07/25 07:11:13;;;;;;;13.27;9.93;;;17.50;99.90;;;;;;5056383;28;20252;-55
2023/07/25 07:13:41;;;;;;;12.40;9.48;;;17.40;99.90;;;;;;5068271;28;20289;-55
2023/07/25 07:16:09;;;;;;;12.02;9.50;;;17.40;99.90;;;;;;5061169;28;20284;-56
2023/07/25 07:18:37;;;;;;;9.60;8.75;;;17.40;99.90;;;;;;5059956;28;20230;-57
2023/07/25 07:21:05;;;;;;;12.27;9.77;;;17.40;99.90;;;;;;5069029;28;20707;-55
2023/07/25 07:23:33;;;;;;;11.30;10.10;;;17.40;99.90;;;;;;5040212;28;20254;-57
2023/07/25 07:26:01;;;;;;;13.00;10.60;;;17.40;99.90;;;;;;5064581;28;20198;-57
2023/07/25 07:28:30;;;;;;;13.23;10.50;;;17.30;99.90;;;;;;5064048;28;20759;-55
2023/07/25 07:30:58;;;;;;;13.00;10.88;;;17.30;99.90;;;;;;5057118;28;20198;-55
2023/07/25 07:33:26;;;;;;;18.35;12.25;;;17.20;99.90;;;;;;5069054;28;20206;-55
2023/07/25 07:35:54;;;;;;;13.00;11.15;;;17.20;99.90;;;;;;5058871;28;20625;-56
2023/07/25 07:38:22;;;;;;;14.75;11.82;;;17.20;99.90;;;;;;5061920;28;20307;-55
2023/07/25 07:40:50;;;;;;;15.70;11.98;;;17.20;99.90;;;;;;5067066;28;20259;-57
2023/07/25 07:43:18;;;;;;;18.65;12.13;;;17.20;99.90;;;;;;5056000;28;20237;-56
2023/07/25 07:45:49;;;;;;;16.25;12.80;;;17.20;99.90;;;;;;5066349;28;20225;-57
2023/07/25 07:48:16;;;;;;;14.23;12.80;;;17.20;99.90;;;;;;5055891;28;20304;-55
2023/07/25 07:50:44;;;;;;;18.88;13.20;;;17.10;99.90;;;;;;5066056;28;20288;-57
2023/07/25 07:53:12;;;;;;;15.70;14.00;;;17.10;99.90;;;;;;5055777;28;20296;-57
2023/07/25 07:55:40;;;;;;;21.10;13.75;;;17.20;99.90;;;;;;5067230;28;20237;-55
2023/07/25 07:58:08;;;;;;;13.77;12.43;;;17.20;99.90;;;;;;5060328;28;20322;-56
2023/07/25 08:00:36;;;;;;;16.55;14.85;;;17.20;99.90;;;;;;5059983;28;20292;-54
2023/07/25 08:03:05;;;;;;;15.82;13.65;;;17.30;99.90;;;;;;5068443;28;20212;-57
2023/07/25 08:05:33;;;;;;;14.98;13.48;;;17.30;99.90;;;;;;5068107;28;20197;-55
2023/07/25 08:08:01;;;;;;;15.15;12.55;;;17.20;99.90;;;;;;5059422;28;20761;-58
2023/07/25 08:10:28;;;;;;;13.75;12.02;;;17.10;99.90;;;;;;5060449;28;20260;-57
2023/07/25 08:12:56;;;;;;;11.68;10.45;;;17.10;99.90;;;;;;5066907;28;20429;-57
2023/07/25 08:15:24;;;;;;;13.18;11.63;;;17.10;99.90;;;;;;5055006;28;20198;-56
2023/07/25 08:17:52;;;;;;;15.68;12.52;;;17.00;99.90;;;;;;5065593;28;20218;-56
2023/07/25 08:20:21;;;;;;;14.77;12.95;;;17.00;99.90;;;;;;5061855;28;20197;-56
2023/07/25 08:22:49;;;;;;;18.80;12.75;;;17.00;99.90;;;;;;5057573;28;20201;-55
2023/07/25 08:25:17;;;;;;;17.48;14.00;;;17.00;99.90;;;;;;5067627;28;20749;-56
2023/07/25 08:27:45;;;;;;;17.10;14.25;;;17.00;99.90;;;;;;5057263;28;20599;-59
2023/07/25 08:30:13;;;;;;;16.90;13.95;;;17.00;99.90;;;;;;5062232;28;20205;-56
2023/07/25 08:32:41;;;;;;;18.88;13.13;;;17.00;99.90;;;;;;5064858;28;20201;-56
2023/07/25 08:35:09;;;;;;;16.73;13.85;;;16.90;99.90;;;;;;5054290;28;20248;-55
2023/07/25 08:37:38;;;;;;;18.67;13.35;;;16.90;99.90;;;;;;5078810;22;20291;-59
2023/07/25 08:40:07;;;;;;;14.82;12.23;;;16.80;99.90;;;;;;5079653;28;20236;-60
2023/07/25 08:42:35;;;;;;;12.73;10.27;;;16.70;99.90;;;;;;5079423;28;20241;-59
2023/07/25 08:45:03;;;;;;;11.75;10.10;;;16.60;99.90;;;;;;5087286;28;20235;-60
2023/07/25 08:47:31;;;;;;;14.35;10.18;;;16.50;99.90;;;;;;5074697;28;20212;-60
2023/07/25 08:49:59;;;;;;;12.38;9.30;;;16.50;99.90;;;;;;5078847;28;20204;-60
2023/07/25 08:52:27;;;;;;;9.75;8.77;;;16.50;99.90;;;;;;5080089;28;20204;-60
2023/07/25 08:54:57;;;;;;;7.43;6.70;;;16.40;99.90;;;;;;5086490;28;20231;-60
2023/07/25 08:57:26;;;;;;;9.55;6.53;;;16.30;99.90;;;;;;5075058;28;20225;-60
2023/07/25 08:59:54;;;;;;;7.10;6.07;;;16.30;99.90;;;;;;5085404;28;20243;-60
2023/07/25 09:02:21;;;;;;;5.68;5.25;;;16.20;99.90;;;;;;5081434;28;20743;-60
2023/07/25 09:04:50;;;;;;;5.85;5.35;;;16.30;99.90;;;;;;5076579;28;20227;-60
2023/07/25 09:07:18;;;;;;;5.90;5.40;;;16.30;99.90;;;;;;5088172;28;20204;-60
2023/07/25 09:09:45;;;;;;;5.63;5.13;;;16.30;99.90;;;;;;5076628;28;20283;-60
2023/07/25 09:12:14;;;;;;;6.07;5.25;;;16.40;99.90;;;;;;5082358;28;20229;-58
2023/07/25 09:14:43;;;;;;;6.60;5.03;;;16.50;99.90;;;;;;5084431;28;20299;-58
2023/07/25 09:17:11;;;;;;;5.97;5.18;;;16.60;99.90;;;;;;5074583;28;20204;-59
2023/07/25 09:19:39;;;;;;;5.00;4.50;;;16.70;99.90;;;;;;5086726;28;20788;-58
2023/07/25 09:22:06;;;;;;;5.20;4.07;;;16.80;99.90;;;;;;5079796;28;20197;-59
2023/07/25 09:24:36;;;;;;;5.32;4.40;;;16.90;99.90;;;;;;5077754;28;20201;-59
2023/07/25 09:27:05;;;;;;;5.07;4.68;;;16.90;99.90;;;;;;5087687;28;20228;-59
2023/07/25 09:29:39;;;;;;;6.15;4.38;;;17.10;99.90;;;;;;5058518;28;20232;-59
2023/07/25 09:32:17;;;;;;;6.32;4.97;;;17.20;99.90;;;;;;5082552;28;20201;-59
2023/07/25 09:34:46;;;;;;;4.10;3.80;;;17.40;99.90;;;;;;5084436;28;20663;-59
2023/07/25 09:37:16;;;;;;;4.75;4.35;;;17.50;99.90;;;;;;5074290;28;20212;-59
2023/07/25 09:39:43;;;;;;;4.00;3.75;;;17.60;99.90;;;;;;5085839;28;20220;-58
2023/07/25 09:42:11;;;;;;;3.97;3.40;;;17.70;99.90;;;;;;5080008;28;20628;-58
2023/07/25 09:44:45;;;;;;;4.10;3.25;;;17.70;99.90;;;;;;5077590;28;20240;-58
2023/07/25 09:47:13;;;;;;;3.13;2.92;;;17.70;99.90;;;;;;5088101;28;20648;-59
2023/07/25 09:49:47;;;;;;;2.97;2.78;;;17.50;99.90;;;;;;5074553;28;20228;-59
2023/07/25 09:52:15;;;;;;;2.70;2.60;;;17.50;99.90;;;;;;5084435;28;20297;-59
2023/07/25 09:54:43;;;;;;;2.80;2.65;;;17.50;99.90;;;;;;5080935;28;20288;-59
2023/07/25 09:57:11;;;;;;;2.83;2.72;;;17.40;99.90;;;;;;5075254;28;20363;-59
2023/07/25 09:59:40;;;;;;;3.05;2.75;;;17.50;99.90;;;;;;5090181;28;20249;-59
2023/07/25 10:02:09;;;;;;;2.92;2.72;;;17.50;99.90;;;;;;5083266;28;20235;-58
2023/07/25 10:04:38;;;;;;;2.80;2.60;;;17.70;99.90;;;;;;5081458;28;20283;-59
2023/07/25 10:07:06;;;;;;;3.85;2.78;;;17.80;99.90;;;;;;5087499;28;20212;-59
2023/07/25 10:09:35;;;;;;;6.00;2.70;;;17.90;99.90;;;;;;5082833;28;20204;-59
2023/07/25 10:12:03;;;;;;;3.67;2.85;;;18.00;99.90;;;;;;5089779;28;20279;-59
2023/07/25 10:14:31;;;;;;;3.22;3.00;;;18.20;99.90;;;;;;5074912;28;20258;-59
2023/07/25 10:17:01;;;;;;;3.70;3.40;;;18.40;99.90;;;;;;5090049;28;20232;-59
2023/07/25 10:19:29;;;;;;;3.08;2.92;;;18.70;99.90;;;;;;5077346;28;20212;-59
2023/07/25 10:21:57;;;;;;;3.95;2.90;;;18.90;99.90;;;;;;5087319;28;20243;-59
2023/07/25 10:24:25;;;;;;;4.57;2.70;;;19.10;99.90;;;;;;5084958;28;20257;-60
2023/07/25 10:26:54;;;;;;;3.50;3.20;;;19.20;99.90;;;;;;5079120;28;20671;-59
2023/07/25 10:29:38;;;;;;;2.95;2.75;;;19.30;99.90;;;;;;5090278;28;20220;-60
2023/07/25 10:32:09;;;;;;;2.63;2.53;;;19.30;99.90;;;;;;5071534;28;20253;-60
2023/07/25 10:34:47;;;;;;;8.23;2.55;;;19.40;99.90;;;;;;5081124;28;20209;-58
2023/07/25 10:37:28;;;;;;;2.55;2.35;;;19.40;99.90;;;;;;5090378;28;20204;-61
2023/07/25 10:40:03;;;;;;;1.98;1.88;;;19.50;99.90;;;;;;5080472;28;20274;-60
2023/07/25 10:42:44;;;;;;;2.10;2.00;;;19.40;99.90;;;;;;5082046;28;20215;-60
2023/07/25 10:46:00;;;;;;;2.50;1.98;;;19.40;99.90;;;;;;5060083;28;20210;-60
2023/07/25 10:48:36;;;;;;;1.55;1.55;;;19.30;99.90;;;;;;5066411;28;20312;-60
2023/07/25 10:51:06;;;;;;;1.63;1.52;;;19.30;99.90;;;;;;5088981;28;20617;-59
2023/07/25 10:53:35;;;;;;;1.77;1.67;;;19.20;99.90;;;;;;5060052;28;20203;-60
2023/07/25 10:56:10;;;;;;;1.42;1.33;;;19.10;99.90;;;;;;5084463;28;20251;-59
2023/07/25 10:58:38;;;;;;;1.73;1.63;;;19.20;99.90;;;;;;5084386;28;20278;-59
2023/07/25 11:01:07;;;;;;;1.45;1.45;;;19.20;99.90;;;;;;5076028;28;20209;-59
2023/07/25 11:03:36;;;;;;;1.33;1.33;;;19.20;99.90;;;;;;5088842;28;20224;-59
2023/07/25 11:06:38;;;;;;;1.60;1.50;;;19.40;99.90;;;;;;5080926;28;20196;-59
2023/07/25 11:09:11;;;;;;;1.45;1.20;;;19.60;99.90;;;;;;5072400;28;20216;-59
2023/07/25 11:11:43;;;;;;;1.15;1.15;;;19.60;99.90;;;;;;5061089;28;20195;-59
2023/07/25 11:14:13;;;;;;;1.33;1.33;;;19.60;99.90;;;;;;5084181;28;20258;-59
2023/07/25 11:16:41;;;;;;;1.65;1.55;;;19.50;99.90;;;;;;5086095;28;20231;-59
2023/07/25 11:19:10;;;;;;;1.40;1.40;;;19.40;99.90;;;;;;5076377;28;20573;-60
2023/07/25 11:21:39;;;;;;;2.42;1.27;;;19.40;99.90;;;;;;5088465;28;20196;-59
2023/07/25 11:24:07;;;;;;;1.20;1.17;;;19.40;99.90;;;;;;5081476;28;20204;-60
2023/07/25 11:26:37;;;;;;;1.30;1.30;;;19.40;99.90;;;;;;5080121;28;20197;-59
2023/07/25 11:29:05;;;;;;;0.95;0.95;;;19.50;99.90;;;;;;5089273;28;20703;-59
2023/07/25 11:31:33;;;;;;;1.50;1.42;;;19.60;99.90;;;;;;5076706;28;20321;-60
2023/07/25 11:34:10;;;;;;;1.15;1.15;;;19.70;99.90;;;;;;5085426;28;20234;-59
2023/07/25 11:36:39;;;;;;;1.25;1.25;;;19.80;99.90;;;;;;5085318;28;20265;-59
2023/07/25 11:39:08;;;;;;;1.70;1.67;;;19.90;99.90;;;;;;5075612;28;20308;-59
2023/07/25 11:41:36;;;;;;;1.25;1.20;;;20.00;99.90;;;;;;5088510;28;20204;-60
2023/07/25 11:44:06;;;;;;;1.20;1.20;;;20.10;99.90;;;;;;5080645;28;20200;-60
2023/07/25 11:46:34;;;;;;;1.33;1.23;;;20.20;99.90;;;;;;5080049;28;20255;-59
2023/07/25 11:49:02;;;;;;;1.00;1.00;;;20.20;99.90;;;;;;5075644;28;20708;-59
2023/07/25 11:51:31;;;;;;;0.80;0.80;;;20.30;99.90;;;;;;5088898;28;20240;-59
2023/07/25 11:54:00;;;;;;;1.20;1.20;;;20.60;99.90;;;;;;5080080;28;20592;-59
2023/07/25 11:56:28;;;;;;;1.30;1.20;;;20.70;99.90;;;;;;5080931;28;20205;-59
2023/07/25 11:58:56;;;;;;;1.08;1.02;;;20.80;99.90;;;;;;5087404;28;20224;-59
2023/07/25 12:01:30;;;;;;;1.02;1.02;;;21.20;99.90;;;;;;5075518;28;20281;-59
2023/07/25 12:04:00;;;;;;;0.90;0.90;;;21.80;99.90;;;;;;5085040;28;20207;-59
2023/07/25 12:06:33;;;;;;;0.60;0.60;;;22.60;99.90;;;;;;5083349;28;20578;-60
2023/07/25 12:09:01;;;;;;;0.80;0.80;;;23.30;99.90;;;;;;5076350;28;20639;-60
2023/07/25 12:11:29;;;;;;;0.85;0.85;;;23.70;99.90;;;;;;5088810;28;20197;-60
2023/07/25 12:13:58;;;;;;;1.10;1.08;;;24.00;99.90;;;;;;5079169;28;20206;-60
2023/07/25 12:16:27;;;;;;;1.05;0.80;;;23.90;99.90;;;;;;5080705;28;20293;-60
2023/07/25 12:18:56;;;;;;;1.23;0.95;;;23.70;99.90;;;;;;5087400;28;20227;-60
2023/07/25 12:21:26;;;;;;;1.02;1.02;;;23.50;99.90;;;;;;5075523;28;20343;-59
2023/07/25 12:23:55;;;;;;;2.42;1.00;;;23.40;99.90;;;;;;5085557;28;20663;-59
2023/07/25 12:26:23;;;;;;;1.38;1.08;;;23.20;99.90;;;;;;5080223;28;20294;-60
2023/07/25 12:28:51;;;;;;;0.90;0.90;;;23.20;99.90;;;;;;5083889;28;20307;-60
2023/07/25 12:31:19;;;;;;;1.00;1.00;;;23.20;99.90;;;;;;5089995;28;20187;-58
2023/07/25 12:33:49;;;;;;;0.80;0.80;;;22.90;99.90;;;;;;5077216;28;20673;-60
2023/07/25 12:36:18;;;;;;;1.00;1.00;;;22.60;99.90;;;;;;5081434;28;20693;-59
2023/07/25 12:38:46;;;;;;;1.15;0.90;;;22.40;99.90;;;;;;5085376;28;20251;-60
2023/07/25 12:41:16;;;;;;;1.38;0.90;;;22.50;99.90;;;;;;5074828;28;20465;-60
2023/07/25 12:43:44;;;;;;;1.80;0.70;;;22.70;99.90;;;;;;5085985;28;20300;-61
2023/07/25 12:46:12;;;;;;;0.88;0.88;;;22.80;99.90;;;;;;5080208;28;20240;-61
2023/07/25 12:48:40;;;;;;;0.80;0.80;;;22.80;99.90;;;;;;5078659;28;20225;-60
2023/07/25 12:51:09;;;;;;;0.90;0.90;;;23.00;99.90;;;;;;5082795;28;20192;-59
2023/07/25 12:53:37;;;;;;;0.90;0.90;;;23.40;99.90;;;;;;5069987;28;20979;-60
2023/07/25 12:56:07;;;;;;;1.20;1.02;;;23.80;99.90;;;;;;5086017;28;20235;-59